sensor_id;sensor_type;location;lat;lon;timestamp;pressure;altitude;pressure_sealevel;temperature;humidity
64711;BME280;51139;45.626;6.850;2023-03-22T00:02:20;81894.28;;;2.42;57.50
64711;BME280;51139;45.626;6.850;2023-03-22T00:04:47;81904.41;;;2.45;56.73
64711;BME280;51139;45.626;6.850;2023-03-22T00:07:13;81891.00;;;2.28;57.42
64711;BME280;51139;45.626;6.850;2023-03-22T00:09:38;81892.09;;;2.19;57.21
64711;BME280;51139;45.626;6.850;2023-03-22T00:12:04;81884.88;;;2.25;57.07
64711;BME280;51139;45.626;6.850;2023-03-22T00:14:29;81885.88;;;2.22;56.82
64711;BME280;51139;45.626;6.850;2023-03-22T00:16:55;81886.44;;;2.42;56.68
64711;BME280;51139;45.626;6.850;2023-03-22T00:19:20;81890.09;;;2.25;56.23
64711;BME280;51139;45.626;6.850;2023-03-22T00:21:46;81888.28;;;2.33;56.07
64711;BME280;51139;45.626;6.850;2023-03-22T00:24:12;81890.91;;;2.20;56.05
64711;BME280;51139;45.626;6.850;2023-03-22T00:26:37;81882.94;;;2.26;56.56
64711;BME280;51139;45.626;6.850;2023-03-22T00:29:03;81881.66;;;2.19;56.38
64711;BME280;51139;45.626;6.850;2023-03-22T00:31:28;81886.28;;;2.26;55.67
64711;BME280;51139;45.626;6.850;2023-03-22T00:33:54;81881.88;;;2.21;55.84
64711;BME280;51139;45.626;6.850;2023-03-22T00:36:19;81877.44;;;2.29;55.01
64711;BME280;51139;45.626;6.850;2023-03-22T00:38:45;81877.13;;;2.19;55.03
64711;BME280;51139;45.626;6.850;2023-03-22T00:41:14;81877.81;;;2.20;55.13
64711;BME280;51139;45.626;6.850;2023-03-22T00:43:41;81875.72;;;2.18;54.94
64711;BME280;51139;45.626;6.850;2023-03-22T00:46:06;81872.53;;;2.12;54.82
64711;BME280;51139;45.626;6.850;2023-03-22T00:48:32;81864.16;;;2.14;54.21
64711;BME280;51139;45.626;6.850;2023-03-22T00:50:58;81863.47;;;2.13;54.86
64711;BME280;51139;45.626;6.850;2023-03-22T00:53:23;81865.03;;;2.30;54.99
64711;BME280;51139;45.626;6.850;2023-03-22T00:55:49;81861.50;;;2.41;54.66
64711;BME280;51139;45.626;6.850;2023-03-22T00:58:14;81858.75;;;2.25;55.05
64711;BME280;51139;45.626;6.850;2023-03-22T01:00:40;81857.25;;;2.16;54.86
64711;BME280;51139;45.626;6.850;2023-03-22T01:03:05;81852.72;;;2.03;56.12
64711;BME280;51139;45.626;6.850;2023-03-22T01:05:31;81858.88;;;2.06;55.36
64711;BME280;51139;45.626;6.850;2023-03-22T01:08:01;81856.94;;;2.07;55.60
64711;BME280;51139;45.626;6.850;2023-03-22T01:10:36;81847.31;;;2.01;55.59
64711;BME280;51139;45.626;6.850;2023-03-22T01:13:02;81849.00;;;2.12;54.93
64711;BME280;51139;45.626;6.850;2023-03-22T01:15:27;81838.22;;;2.16;54.17
64711;BME280;51139;45.626;6.850;2023-03-22T01:17:53;81833.63;;;2.09;53.91
64711;BME280;51139;45.626;6.850;2023-03-22T01:20:18;81832.31;;;2.15;53.78
64711;BME280;51139;45.626;6.850;2023-03-22T01:22:44;81835.13;;;2.17;53.82
64711;BME280;51139;45.626;6.850;2023-03-22T01:25:09;81832.41;;;2.10;52.88
64711;BME280;51139;45.626;6.850;2023-03-22T01:27:35;81835.59;;;1.95;53.12
64711;BME280;51139;45.626;6.850;2023-03-22T01:30:00;81831.56;;;1.94;52.97
64711;BME280;51139;45.626;6.850;2023-03-22T01:32:26;81831.25;;;1.97;53.34
64711;BME280;51139;45.626;6.850;2023-03-22T01:34:51;81821.59;;;1.92;52.87
64711;BME280;51139;45.626;6.850;2023-03-22T01:37:18;81822.91;;;1.99;52.84
64711;BME280;51139;45.626;6.850;2023-03-22T01:39:43;81818.56;;;2.01;52.38
64711;BME280;51139;45.626;6.850;2023-03-22T01:42:15;81818.38;;;1.99;52.01
64711;BME280;51139;45.626;6.850;2023-03-22T01:44:42;81815.75;;;1.99;51.94
64711;BME280;51139;45.626;6.850;2023-03-22T01:47:09;81816.53;;;2.08;52.02
64711;BME280;51139;45.626;6.850;2023-03-22T01:49:35;81814.25;;;2.04;52.18
64711;BME280;51139;45.626;6.850;2023-03-22T01:52:13;81808.72;;;2.08;51.63
64711;BME280;51139;45.626;6.850;2023-03-22T01:54:44;81812.47;;;1.99;51.53
64711;BME280;51139;45.626;6.850;2023-03-22T01:57:11;81807.03;;;1.97;52.02
64711;BME280;51139;45.626;6.850;2023-03-22T01:59:38;81799.91;;;1.97;52.39
64711;BME280;51139;45.626;6.850;2023-03-22T02:02:04;81791.38;;;1.97;52.22
64711;BME280;51139;45.626;6.850;2023-03-22T02:04:32;81801.19;;;2.04;51.55
64711;BME280;51139;45.626;6.850;2023-03-22T02:07:01;81792.88;;;1.92;51.19
64711;BME280;51139;45.626;6.850;2023-03-22T02:09:36;81790.66;;;1.96;51.37
64711;BME280;51139;45.626;6.850;2023-03-22T02:20:41;81782.75;;;1.75;51.55
64711;BME280;51139;45.626;6.850;2023-03-22T02:23:38;81781.25;;;1.80;51.03
64711;BME280;51139;45.626;6.850;2023-03-22T02:26:32;81779.22;;;1.86;51.09
64711;BME280;51139;45.626;6.850;2023-03-22T02:39:50;81778.88;;;1.68;50.79
64711;BME280;51139;45.626;6.850;2023-03-22T02:47:35;81773.19;;;2.47;48.11
64711;BME280;51139;45.626;6.850;2023-03-22T02:50:24;81770.84;;;2.36;48.59
64711;BME280;51139;45.626;6.850;2023-03-22T02:53:16;81781.66;;;1.84;50.48
64711;BME280;51139;45.626;6.850;2023-03-22T02:55:50;81772.59;;;1.85;49.31
64711;BME280;51139;45.626;6.850;2023-03-22T02:59:05;81768.81;;;2.07;49.38
64711;BME280;51139;45.626;6.850;2023-03-22T03:01:26;81768.16;;;1.93;49.80
64711;BME280;51139;45.626;6.850;2023-03-22T03:03:56;81774.44;;;1.77;49.82
64711;BME280;51139;45.626;6.850;2023-03-22T03:06:26;81771.53;;;1.80;49.89
64711;BME280;51139;45.626;6.850;2023-03-22T03:08:55;81775.94;;;1.72;50.53
64711;BME280;51139;45.626;6.850;2023-03-22T03:11:22;81774.13;;;1.80;50.35
64711;BME280;51139;45.626;6.850;2023-03-22T03:13:49;81767.19;;;1.83;49.69
64711;BME280;51139;45.626;6.850;2023-03-22T03:16:18;81771.00;;;1.82;50.39
64711;BME280;51139;45.626;6.850;2023-03-22T03:19:06;81766.78;;;1.79;50.39
64711;BME280;51139;45.626;6.850;2023-03-22T03:21:57;81765.31;;;2.04;49.38
64711;BME280;51139;45.626;6.850;2023-03-22T03:27:14;81776.56;;;1.99;49.26
64711;BME280;51139;45.626;6.850;2023-03-22T03:30:06;81773.47;;;2.01;48.73
64711;BME280;51139;45.626;6.850;2023-03-22T03:32:44;81768.34;;;1.95;49.54
64711;BME280;51139;45.626;6.850;2023-03-22T03:35:19;81769.50;;;1.86;49.73
64711;BME280;51139;45.626;6.850;2023-03-22T03:40:37;81769.50;;;1.73;48.85
64711;BME280;51139;45.626;6.850;2023-03-22T03:43:04;81777.56;;;1.62;49.89
64711;BME280;51139;45.626;6.850;2023-03-22T03:45:32;81767.13;;;1.62;49.26
64711;BME280;51139;45.626;6.850;2023-03-22T03:48:01;81773.31;;;1.72;49.07
64711;BME280;51139;45.626;6.850;2023-03-22T03:50:28;81766.69;;;1.71;49.38
64711;BME280;51139;45.626;6.850;2023-03-22T03:52:54;81766.31;;;1.67;49.43
64711;BME280;51139;45.626;6.850;2023-03-22T03:55:21;81763.97;;;1.77;49.05
64711;BME280;51139;45.626;6.850;2023-03-22T03:57:47;81763.16;;;1.82;48.49
64711;BME280;51139;45.626;6.850;2023-03-22T04:00:12;81765.28;;;1.70;49.08
64711;BME280;51139;45.626;6.850;2023-03-22T04:02:40;81762.19;;;1.71;49.65
64711;BME280;51139;45.626;6.850;2023-03-22T04:05:06;81757.66;;;1.85;48.86
64711;BME280;51139;45.626;6.850;2023-03-22T04:07:32;81758.81;;;1.98;48.95
64711;BME280;51139;45.626;6.850;2023-03-22T04:09:58;81762.19;;;1.71;49.73
64711;BME280;51139;45.626;6.850;2023-03-22T04:12:24;81764.41;;;1.67;49.15
64711;BME280;51139;45.626;6.850;2023-03-22T04:14:49;81767.13;;;1.62;49.57
64711;BME280;51139;45.626;6.850;2023-03-22T04:17:15;81761.78;;;1.67;49.85
64711;BME280;51139;45.626;6.850;2023-03-22T04:19:40;81760.47;;;1.74;49.58
64711;BME280;51139;45.626;6.850;2023-03-22T04:22:06;81760.16;;;1.78;48.73
64711;BME280;51139;45.626;6.850;2023-03-22T04:24:38;81758.75;;;1.77;49.65
64711;BME280;51139;45.626;6.850;2023-03-22T04:27:03;81759.00;;;1.65;49.64
64711;BME280;51139;45.626;6.850;2023-03-22T04:29:29;81757.88;;;1.60;49.89
64711;BME280;51139;45.626;6.850;2023-03-22T04:31:56;81751.56;;;1.69;49.51
64711;BME280;51139;45.626;6.850;2023-03-22T04:34:21;81752.84;;;1.63;50.73
64711;BME280;51139;45.626;6.850;2023-03-22T04:36:47;81746.66;;;1.52;50.29
64711;BME280;51139;45.626;6.850;2023-03-22T04:39:13;81748.19;;;1.48;50.60
64711;BME280;51139;45.626;6.850;2023-03-22T04:41:39;81750.47;;;1.51;50.82
64711;BME280;51139;45.626;6.850;2023-03-22T04:44:06;81756.72;;;1.48;50.87
64711;BME280;51139;45.626;6.850;2023-03-22T04:46:34;81752.03;;;1.33;50.31
64711;BME280;51139;45.626;6.850;2023-03-22T04:48:59;81752.03;;;1.33;50.36
64711;BME280;51139;45.626;6.850;2023-03-22T04:51:26;81751.50;;;1.35;50.35
64711;BME280;51139;45.626;6.850;2023-03-22T04:53:52;81749.41;;;1.33;50.15
64711;BME280;51139;45.626;6.850;2023-03-22T04:56:18;81747.97;;;1.32;50.33
64711;BME280;51139;45.626;6.850;2023-03-22T04:58:44;81756.50;;;1.46;50.26
64711;BME280;51139;45.626;6.850;2023-03-22T05:01:12;81755.91;;;1.40;49.48
64711;BME280;51139;45.626;6.850;2023-03-22T05:03:38;81753.31;;;1.40;49.67
64711;BME280;51139;45.626;6.850;2023-03-22T05:06:06;81747.06;;;1.43;49.36
64711;BME280;51139;45.626;6.850;2023-03-22T05:08:32;81743.06;;;1.42;49.10
64711;BME280;51139;45.626;6.850;2023-03-22T05:11:03;81741.56;;;1.47;49.16
64711;BME280;51139;45.626;6.850;2023-03-22T05:13:28;81740.56;;;1.36;49.10
64711;BME280;51139;45.626;6.850;2023-03-22T05:15:54;81745.19;;;1.43;49.04
64711;BME280;51139;45.626;6.850;2023-03-22T05:18:22;81743.03;;;1.55;48.71
64711;BME280;51139;45.626;6.850;2023-03-22T05:20:51;81747.16;;;1.64;48.45
64711;BME280;51139;45.626;6.850;2023-03-22T05:23:19;81742.69;;;1.72;48.97
64711;BME280;51139;45.626;6.850;2023-03-22T05:25:50;81745.75;;;1.63;48.73
64711;BME280;51139;45.626;6.850;2023-03-22T05:28:17;81745.53;;;1.61;49.33
64711;BME280;51139;45.626;6.850;2023-03-22T05:30:44;81745.56;;;1.48;48.77
64711;BME280;51139;45.626;6.850;2023-03-22T05:33:10;81746.28;;;1.35;49.73
64711;BME280;51139;45.626;6.850;2023-03-22T05:35:38;81755.50;;;1.49;48.94
64711;BME280;51139;45.626;6.850;2023-03-22T05:38:05;81760.03;;;1.49;49.10
64711;BME280;51139;45.626;6.850;2023-03-22T05:40:31;81748.44;;;1.57;48.22
64711;BME280;51139;45.626;6.850;2023-03-22T05:42:57;81749.00;;;1.91;46.49
64711;BME280;51139;45.626;6.850;2023-03-22T05:45:23;81759.25;;;1.88;46.54
64711;BME280;51139;45.626;6.850;2023-03-22T05:47:49;81756.59;;;2.02;46.04
64711;BME280;51139;45.626;6.850;2023-03-22T05:50:17;81764.63;;;2.04;46.04
64711;BME280;51139;45.626;6.850;2023-03-22T05:52:43;81765.41;;;1.64;47.48
64711;BME280;51139;45.626;6.850;2023-03-22T05:55:13;81764.91;;;1.66;47.68
64711;BME280;51139;45.626;6.850;2023-03-22T05:57:42;81764.84;;;1.93;47.13
64711;BME280;51139;45.626;6.850;2023-03-22T06:00:10;81768.25;;;1.53;47.95
64711;BME280;51139;45.626;6.850;2023-03-22T06:02:41;81758.75;;;1.28;49.10
64711;BME280;51139;45.626;6.850;2023-03-22T06:05:07;81767.06;;;1.27;48.27
64711;BME280;51139;45.626;6.850;2023-03-22T06:07:33;81758.34;;;1.38;48.76
64711;BME280;51139;45.626;6.850;2023-03-22T06:09:58;81778.28;;;1.62;47.72
64711;BME280;51139;45.626;6.850;2023-03-22T06:12:24;81774.75;;;1.59;46.50
64711;BME280;51139;45.626;6.850;2023-03-22T06:14:50;81774.69;;;1.52;46.60
64711;BME280;51139;45.626;6.850;2023-03-22T06:17:16;81779.50;;;1.48;46.82
64711;BME280;51139;45.626;6.850;2023-03-22T06:19:42;81774.94;;;1.62;46.30
64711;BME280;51139;45.626;6.850;2023-03-22T06:22:07;81771.56;;;1.53;46.36
64711;BME280;51139;45.626;6.850;2023-03-22T06:24:33;81776.88;;;1.61;46.21
64711;BME280;51139;45.626;6.850;2023-03-22T06:26:58;81773.16;;;1.56;46.93
64711;BME280;51139;45.626;6.850;2023-03-22T06:29:24;81775.06;;;1.56;46.64
64711;BME280;51139;45.626;6.850;2023-03-22T06:31:49;81775.28;;;1.58;46.63
64711;BME280;51139;45.626;6.850;2023-03-22T06:34:15;81780.03;;;1.81;47.06
64711;BME280;51139;45.626;6.850;2023-03-22T06:36:40;81773.81;;;2.18;46.83
64711;BME280;51139;45.626;6.850;2023-03-22T06:39:07;81771.72;;;2.38;46.32
64711;BME280;51139;45.626;6.850;2023-03-22T06:41:32;81775.03;;;2.60;46.40
64711;BME280;51139;45.626;6.850;2023-03-22T06:43:58;81774.19;;;2.86;45.70
64711;BME280;51139;45.626;6.850;2023-03-22T06:46:23;81782.50;;;3.27;44.94
64711;BME280;51139;45.626;6.850;2023-03-22T06:48:49;81786.41;;;3.78;44.16
64711;BME280;51139;45.626;6.850;2023-03-22T06:51:14;81779.56;;;4.04;42.61
64711;BME280;51139;45.626;6.850;2023-03-22T06:53:40;81791.09;;;4.09;42.92
64711;BME280;51139;45.626;6.850;2023-03-22T06:56:05;81778.34;;;4.05;43.18
64711;BME280;51139;45.626;6.850;2023-03-22T06:58:31;81785.78;;;4.46;42.05
64711;BME280;51139;45.626;6.850;2023-03-22T07:00:56;81793.88;;;4.79;41.19
64711;BME280;51139;45.626;6.850;2023-03-22T07:03:22;81789.38;;;4.87;39.85
64711;BME280;51139;45.626;6.850;2023-03-22T07:05:48;81790.06;;;5.11;40.18
64711;BME280;51139;45.626;6.850;2023-03-22T07:08:13;81783.56;;;5.43;39.85
64711;BME280;51139;45.626;6.850;2023-03-22T07:10:40;81788.28;;;5.52;39.98
64711;BME280;51139;45.626;6.850;2023-03-22T07:13:06;81791.16;;;6.19;37.67
64711;BME280;51139;45.626;6.850;2023-03-22T07:15:31;81788.63;;;7.61;35.87
64711;BME280;51139;45.626;6.850;2023-03-22T07:17:59;81797.59;;;7.83;34.90
64711;BME280;51139;45.626;6.850;2023-03-22T07:20:25;81801.75;;;7.43;35.75
64711;BME280;51139;45.626;6.850;2023-03-22T07:22:51;81797.41;;;8.24;35.70
64711;BME280;51139;45.626;6.850;2023-03-22T07:25:17;81794.34;;;8.28;34.28
64711;BME280;51139;45.626;6.850;2023-03-22T07:27:43;81810.03;;;8.26;34.99
64711;BME280;51139;45.626;6.850;2023-03-22T07:30:09;81809.50;;;8.27;30.60
64711;BME280;51139;45.626;6.850;2023-03-22T07:32:34;81805.63;;;9.09;30.39
64711;BME280;51139;45.626;6.850;2023-03-22T07:35:00;81807.81;;;9.95;28.60
64711;BME280;51139;45.626;6.850;2023-03-22T07:37:25;81808.66;;;10.07;31.06
64711;BME280;51139;45.626;6.850;2023-03-22T07:39:51;81806.16;;;10.76;30.73
64711;BME280;51139;45.626;6.850;2023-03-22T07:42:16;81812.81;;;10.87;30.67
64711;BME280;51139;45.626;6.850;2023-03-22T07:44:42;81815.28;;;11.34;29.07
64711;BME280;51139;45.626;6.850;2023-03-22T07:47:07;81823.00;;;10.04;28.83
64711;BME280;51139;45.626;6.850;2023-03-22T07:49:33;81825.50;;;10.49;30.11
64711;BME280;51139;45.626;6.850;2023-03-22T07:51:58;81822.59;;;10.64;29.15
64711;BME280;51139;45.626;6.850;2023-03-22T07:54:24;81828.28;;;9.94;29.08
64711;BME280;51139;45.626;6.850;2023-03-22T07:56:50;81830.72;;;9.45;30.44
64711;BME280;51139;45.626;6.850;2023-03-22T07:59:15;81830.34;;;9.86;30.41
64711;BME280;51139;45.626;6.850;2023-03-22T08:01:42;81831.16;;;8.96;29.49
64711;BME280;51139;45.626;6.850;2023-03-22T08:04:07;81831.47;;;9.92;28.93
64711;BME280;51139;45.626;6.850;2023-03-22T08:06:33;81832.59;;;10.46;32.05
64711;BME280;51139;45.626;6.850;2023-03-22T08:09:01;81830.41;;;11.12;29.53
64711;BME280;51139;45.626;6.850;2023-03-22T08:11:27;81828.09;;;9.82;27.90
64711;BME280;51139;45.626;6.850;2023-03-22T08:13:52;81826.22;;;10.02;28.87
64711;BME280;51139;45.626;6.850;2023-03-22T08:16:18;81824.88;;;8.92;31.79
64711;BME280;51139;45.626;6.850;2023-03-22T08:18:44;81828.19;;;8.04;32.29
64711;BME280;51139;45.626;6.850;2023-03-22T08:21:09;81825.06;;;7.98;31.65
64711;BME280;51139;45.626;6.850;2023-03-22T08:23:35;81825.50;;;8.47;29.71
64711;BME280;51139;45.626;6.850;2023-03-22T08:26:00;81825.66;;;9.29;30.87
64711;BME280;51139;45.626;6.850;2023-03-22T08:28:26;81829.03;;;8.50;29.94
64711;BME280;51139;45.626;6.850;2023-03-22T08:30:51;81822.88;;;9.10;29.95
64711;BME280;51139;45.626;6.850;2023-03-22T08:33:17;81818.44;;;8.67;33.59
64711;BME280;51139;45.626;6.850;2023-03-22T08:35:45;81827.28;;;9.25;30.76
64711;BME280;51139;45.626;6.850;2023-03-22T08:38:10;81819.22;;;8.42;29.03
64711;BME280;51139;45.626;6.850;2023-03-22T08:40:36;81821.91;;;8.17;30.43
64711;BME280;51139;45.626;6.850;2023-03-22T08:43:01;81818.41;;;8.32;29.15
64711;BME280;51139;45.626;6.850;2023-03-22T08:45:27;81814.47;;;8.76;27.95
64711;BME280;51139;45.626;6.850;2023-03-22T08:47:53;81810.03;;;9.51;29.39
64711;BME280;51139;45.626;6.850;2023-03-22T08:50:19;81807.78;;;9.85;28.71
64711;BME280;51139;45.626;6.850;2023-03-22T08:59:28;81812.91;;;12.62;25.60
64711;BME280;51139;45.626;6.850;2023-03-22T09:01:53;81819.69;;;12.97;24.54
64711;BME280;51139;45.626;6.850;2023-03-22T09:04:19;81807.31;;;11.95;27.30
64711;BME280;51139;45.626;6.850;2023-03-22T09:06:45;81816.69;;;12.37;26.97
64711;BME280;51139;45.626;6.850;2023-03-22T09:09:11;81811.16;;;11.21;25.76
64711;BME280;51139;45.626;6.850;2023-03-22T09:11:37;81813.47;;;11.46;28.27
64711;BME280;51139;45.626;6.850;2023-03-22T09:14:04;81825.63;;;11.39;31.55
64711;BME280;51139;45.626;6.850;2023-03-22T09:16:30;81818.53;;;10.93;30.75
64711;BME280;51139;45.626;6.850;2023-03-22T09:18:56;81818.78;;;12.29;29.49
64711;BME280;51139;45.626;6.850;2023-03-22T09:21:22;81817.53;;;12.30;30.71
64711;BME280;51139;45.626;6.850;2023-03-22T09:23:47;81821.50;;;12.19;30.24
64711;BME280;51139;45.626;6.850;2023-03-22T09:26:14;81823.31;;;12.17;30.25
64711;BME280;51139;45.626;6.850;2023-03-22T09:28:40;81826.56;;;12.15;30.62
64711;BME280;51139;45.626;6.850;2023-03-22T09:31:08;81822.91;;;12.52;27.92
64711;BME280;51139;45.626;6.850;2023-03-22T09:33:34;81828.00;;;12.60;28.92
64711;BME280;51139;45.626;6.850;2023-03-22T09:36:00;81820.06;;;11.87;30.13
64711;BME280;51139;45.626;6.850;2023-03-22T09:38:26;81825.25;;;11.75;33.27
64711;BME280;51139;45.626;6.850;2023-03-22T09:40:56;81823.44;;;10.87;32.94
64711;BME280;51139;45.626;6.850;2023-03-22T09:43:33;81825.91;;;11.44;32.29
64711;BME280;51139;45.626;6.850;2023-03-22T09:46:01;81835.69;;;11.21;32.39
64711;BME280;51139;45.626;6.850;2023-03-22T09:48:34;81834.25;;;11.40;32.39
64711;BME280;51139;45.626;6.850;2023-03-22T09:51:02;81832.47;;;12.04;31.34
64711;BME280;51139;45.626;6.850;2023-03-22T09:53:29;81839.16;;;9.33;33.14
64711;BME280;51139;45.626;6.850;2023-03-22T09:58:57;81836.66;;;10.87;33.46
64711;BME280;51139;45.626;6.850;2023-03-22T10:06:45;81836.38;;;11.32;29.29
64711;BME280;51139;45.626;6.850;2023-03-22T10:09:17;81830.47;;;11.63;29.58
64711;BME280;51139;45.626;6.850;2023-03-22T10:12:29;81835.53;;;12.10;32.26
64711;BME280;51139;45.626;6.850;2023-03-22T10:14:40;81840.06;;;10.20;31.76
64711;BME280;51139;45.626;6.850;2023-03-22T10:17:13;81836.63;;;9.53;34.10
64711;BME280;51139;45.626;6.850;2023-03-22T10:22:16;81829.25;;;9.99;36.14
64711;BME280;51139;45.626;6.850;2023-03-22T10:24:45;81828.59;;;10.08;35.85
64711;BME280;51139;45.626;6.850;2023-03-22T10:27:15;81818.66;;;10.46;35.34
64711;BME280;51139;45.626;6.850;2023-03-22T10:29:44;81816.44;;;10.62;36.37
64711;BME280;51139;45.626;6.850;2023-03-22T10:32:33;81819.22;;;10.54;30.75
64711;BME280;51139;45.626;6.850;2023-03-22T10:35:01;81816.31;;;10.60;31.91
64711;BME280;51139;45.626;6.850;2023-03-22T10:37:32;81815.19;;;10.83;30.85
64711;BME280;51139;45.626;6.850;2023-03-22T10:40:02;81818.41;;;11.01;32.93
64711;BME280;51139;45.626;6.850;2023-03-22T10:42:35;81816.41;;;11.31;30.82
64711;BME280;51139;45.626;6.850;2023-03-22T10:45:06;81826.56;;;9.79;35.38
64711;BME280;51139;45.626;6.850;2023-03-22T10:47:37;81825.38;;;9.62;28.07
64711;BME280;51139;45.626;6.850;2023-03-22T10:50:12;81822.69;;;10.47;27.10
64711;BME280;51139;45.626;6.850;2023-03-22T10:53:00;81820.75;;;10.57;31.09
64711;BME280;51139;45.626;6.850;2023-03-22T10:55:28;81819.22;;;11.03;36.23
64711;BME280;51139;45.626;6.850;2023-03-22T10:57:59;81812.84;;;11.67;34.53
64711;BME280;51139;45.626;6.850;2023-03-22T11:00:32;81820.03;;;11.45;35.41
64711;BME280;51139;45.626;6.850;2023-03-22T11:03:00;81816.03;;;11.76;34.03
64711;BME280;51139;45.626;6.850;2023-03-22T11:05:27;81812.38;;;12.01;33.29
64711;BME280;51139;45.626;6.850;2023-03-22T11:07:55;81817.59;;;11.69;32.85
64711;BME280;51139;45.626;6.850;2023-03-22T11:10:30;81810.47;;;11.11;30.78
64711;BME280;51139;45.626;6.850;2023-03-22T11:15:35;81812.09;;;11.96;31.60
64711;BME280;51139;45.626;6.850;2023-03-22T11:18:11;81810.81;;;11.97;27.07
64711;BME280;51139;45.626;6.850;2023-03-22T11:20:50;81816.25;;;12.00;27.07
64711;BME280;51139;45.626;6.850;2023-03-22T11:23:18;81819.72;;;12.12;28.43
64711;BME280;51139;45.626;6.850;2023-03-22T11:25:47;81817.22;;;12.04;26.23
64711;BME280;51139;45.626;6.850;2023-03-22T11:28:25;81818.91;;;12.00;32.91
64711;BME280;51139;45.626;6.850;2023-03-22T11:33:22;81817.75;;;11.71;32.53
64711;BME280;51139;45.626;6.850;2023-03-22T11:35:55;81827.09;;;11.72;30.79
64711;BME280;51139;45.626;6.850;2023-03-22T11:38:38;81829.00;;;11.30;23.13
64711;BME280;51139;45.626;6.850;2023-03-22T11:41:51;81832.06;;;11.17;25.72
64711;BME280;51139;45.626;6.850;2023-03-22T11:43:53;81830.28;;;11.80;31.24
64711;BME280;51139;45.626;6.850;2023-03-22T11:46:20;81827.06;;;10.82;25.43
64711;BME280;51139;45.626;6.850;2023-03-22T11:48:48;81824.09;;;11.36;23.78
64711;BME280;51139;45.626;6.850;2023-03-22T11:51:24;81815.56;;;11.48;25.61
64711;BME280;51139;45.626;6.850;2023-03-22T11:53:55;81826.66;;;11.76;28.26
64711;BME280;51139;45.626;6.850;2023-03-22T11:56:27;81808.31;;;11.29;21.97
64711;BME280;51139;45.626;6.850;2023-03-22T11:59:02;81819.41;;;11.76;26.38
64711;BME280;51139;45.626;6.850;2023-03-22T12:01:37;81814.88;;;12.30;23.74
64711;BME280;51139;45.626;6.850;2023-03-22T12:04:10;81811.78;;;11.92;26.08
64711;BME280;51139;45.626;6.850;2023-03-22T12:06:40;81810.09;;;11.56;25.23
64711;BME280;51139;45.626;6.850;2023-03-22T12:09:17;81807.28;;;11.63;26.91
64711;BME280;51139;45.626;6.850;2023-03-22T12:11:49;81811.31;;;11.64;25.91
64711;BME280;51139;45.626;6.850;2023-03-22T12:14:58;81807.06;;;11.91;26.57
64711;BME280;51139;45.626;6.850;2023-03-22T12:17:16;81798.47;;;11.09;23.13
64711;BME280;51139;45.626;6.850;2023-03-22T12:19:59;81798.13;;;11.86;27.14
64711;BME280;51139;45.626;6.850;2023-03-22T12:22:32;81800.13;;;12.17;26.74
64711;BME280;51139;45.626;6.850;2023-03-22T12:24:59;81798.00;;;12.25;27.35
64711;BME280;51139;45.626;6.850;2023-03-22T12:27:30;81800.97;;;11.78;25.76
64711;BME280;51139;45.626;6.850;2023-03-22T12:30:04;81799.56;;;11.77;28.57
64711;BME280;51139;45.626;6.850;2023-03-22T12:32:39;81795.69;;;11.68;29.00
64711;BME280;51139;45.626;6.850;2023-03-22T12:35:12;81789.13;;;11.70;27.93
64711;BME280;51139;45.626;6.850;2023-03-22T12:37:42;81795.78;;;11.80;30.08
64711;BME280;51139;45.626;6.850;2023-03-22T12:43:04;81792.19;;;10.56;25.61
64711;BME280;51139;45.626;6.850;2023-03-22T12:45:38;81784.19;;;10.26;27.58
64711;BME280;51139;45.626;6.850;2023-03-22T12:50:52;81780.91;;;10.94;29.52
64711;BME280;51139;45.626;6.850;2023-03-22T12:53:21;81781.06;;;11.58;27.46
64711;BME280;51139;45.626;6.850;2023-03-22T12:55:50;81773.78;;;12.00;28.24
64711;BME280;51139;45.626;6.850;2023-03-22T12:58:23;81773.13;;;11.48;29.79
64711;BME280;51139;45.626;6.850;2023-03-22T13:05:43;81758.47;;;10.76;28.22
64711;BME280;51139;45.626;6.850;2023-03-22T13:08:09;81755.97;;;10.78;30.97
64711;BME280;51139;45.626;6.850;2023-03-22T13:16:02;81756.50;;;11.47;31.82
64711;BME280;51139;45.626;6.850;2023-03-22T13:29:14;81762.25;;;11.85;34.19
64711;BME280;51139;45.626;6.850;2023-03-22T13:31:44;81749.75;;;12.07;35.02
64711;BME280;51139;45.626;6.850;2023-03-22T13:34:28;81751.56;;;11.63;32.86
64711;BME280;51139;45.626;6.850;2023-03-22T13:36:59;81759.34;;;12.13;30.31
64711;BME280;51139;45.626;6.850;2023-03-22T13:39:32;81751.22;;;12.20;28.16
64711;BME280;51139;45.626;6.850;2023-03-22T13:42:22;81743.00;;;12.16;33.95
64711;BME280;51139;45.626;6.850;2023-03-22T13:44:54;81746.03;;;12.22;31.53
64711;BME280;51139;45.626;6.850;2023-03-22T13:49:59;81746.59;;;12.21;30.29
64711;BME280;51139;45.626;6.850;2023-03-22T13:52:29;81750.34;;;12.49;29.36
64711;BME280;51139;45.626;6.850;2023-03-22T13:54:58;81747.19;;;12.41;30.34
64711;BME280;51139;45.626;6.850;2023-03-22T13:57:46;81749.03;;;12.38;30.63
64711;BME280;51139;45.626;6.850;2023-03-22T14:03:00;81745.16;;;12.30;33.21
64711;BME280;51139;45.626;6.850;2023-03-22T14:05:31;81747.72;;;12.18;32.05
64711;BME280;51139;45.626;6.850;2023-03-22T14:07:59;81750.50;;;12.20;30.90
64711;BME280;51139;45.626;6.850;2023-03-22T14:10:35;81743.19;;;12.52;31.40
64711;BME280;51139;45.626;6.850;2023-03-22T14:13:16;81742.31;;;12.37;27.44
64711;BME280;51139;45.626;6.850;2023-03-22T14:15:51;81748.72;;;12.13;31.13
64711;BME280;51139;45.626;6.850;2023-03-22T14:18:29;81737.44;;;12.12;28.85
64711;BME280;51139;45.626;6.850;2023-03-22T14:21:00;81745.59;;;11.94;31.21
64711;BME280;51139;45.626;6.850;2023-03-22T14:23:35;81737.28;;;11.78;29.17
64711;BME280;51139;45.626;6.850;2023-03-22T14:26:07;81742.75;;;12.12;29.64
64711;BME280;51139;45.626;6.850;2023-03-22T14:28:38;81734.28;;;12.25;29.83
64711;BME280;51139;45.626;6.850;2023-03-22T14:31:26;81736.69;;;12.43;28.05
64711;BME280;51139;45.626;6.850;2023-03-22T14:33:54;81736.97;;;11.84;27.80
64711;BME280;51139;45.626;6.850;2023-03-22T14:36:21;81729.34;;;12.10;29.92
64711;BME280;51139;45.626;6.850;2023-03-22T14:38:49;81732.59;;;11.67;29.87
64711;BME280;51139;45.626;6.850;2023-03-22T14:41:23;81725.41;;;12.11;28.57
64711;BME280;51139;45.626;6.850;2023-03-22T14:43:58;81727.94;;;12.09;28.92